Coconut Island, Australia
Current Conditions -  °F | °C
As of 8:00 PM on Friday 19 Dec 2014 (Local Time) from YHID Reporting Station
Clear Clear  
Wind Chill: 84°   Ceiling: Unl
Heat Index: 87°   Visibility: 6mi
Dew Point: 68°   Wind: 6mph
Humidity: 58%   Direction: 70°ENE
Pressure: 29.8"   Gusts: NA
Location:  10.05°S, 143.07°E
Report Text: YHID 191000Z AUTO 07005KT 9999 // NCD 29/20 Q1009
Loading
Personal Weather Stations






























Interactive Weather Map New forecast layout! Learn more

10-Day Weather Forecast

Advertisements
Track Severe Weather on mobile